sensor_id;sensor_type;location;lat;lon;timestamp;pressure;altitude;pressure_sealevel;temperature;humidity
14800;BME280;7491;57.750;11.970;2023-05-03T00:02:22;77238.13;;;-142.11;100.00
14800;BME280;7491;57.750;11.970;2023-05-03T00:04:51;77252.41;;;-142.11;100.00
14800;BME280;7491;57.750;11.970;2023-05-03T00:07:18;77252.41;;;-142.11;100.00
14800;BME280;7491;57.750;11.970;2023-05-03T00:09:46;77252.41;;;-142.11;100.00
14800;BME280;7491;57.750;11.970;2023-05-03T00:12:14;77260.56;;;-142.11;100.00
14800;BME280;7491;57.750;11.970;2023-05-03T00:14:41;77266.66;;;-142.11;100.00
14800;BME280;7491;57.750;11.970;2023-05-03T00:17:09;77270.75;;;-142.11;100.00
14800;BME280;7491;57.750;11.970;2023-05-03T00:19:35;77270.75;;;-142.11;100.00
14800;BME280;7491;57.750;11.970;2023-05-03T00:22:02;77287.06;;;-142.11;100.00
14800;BME280;7491;57.750;11.970;2023-05-03T00:24:29;77293.19;;;-142.11;100.00
14800;BME280;7491;57.750;11.970;2023-05-03T00:26:56;77285.03;;;-142.11;100.00
14800;BME280;7491;57.750;11.970;2023-05-03T00:29:22;77278.91;;;-142.11;100.00
14800;BME280;7491;57.750;11.970;2023-05-03T00:31:50;77285.03;;;-142.11;100.00
14800;BME280;7491;57.750;11.970;2023-05-03T00:34:18;77291.16;;;-142.11;100.00
14800;BME280;7491;57.750;11.970;2023-05-03T00:36:45;77293.19;;;-142.11;100.00
14800;BME280;7491;57.750;11.970;2023-05-03T00:39:11;77297.25;;;-142.11;100.00
14800;BME280;7491;57.750;11.970;2023-05-03T00:41:38;77311.53;;;-142.11;100.00
14800;BME280;7491;57.750;11.970;2023-05-03T00:44:05;77317.66;;;-142.11;100.00
14800;BME280;7491;57.750;11.970;2023-05-03T00:46:33;77321.72;;;-142.11;100.00
14800;BME280;7491;57.750;11.970;2023-05-03T00:49:00;77325.81;;;-142.11;100.00
14800;BME280;7491;57.750;11.970;2023-05-03T00:51:28;77331.94;;;-142.11;100.00
14800;BME280;7491;57.750;11.970;2023-05-03T00:53:55;77338.03;;;-142.11;100.00
14800;BME280;7491;57.750;11.970;2023-05-03T00:56:22;77346.19;;;-142.11;100.00
14800;BME280;7491;57.750;11.970;2023-05-03T00:58:50;77352.31;;;-142.11;100.00
14800;BME280;7491;57.750;11.970;2023-05-03T01:01:17;77358.44;;;-142.11;100.00
14800;BME280;7491;57.750;11.970;2023-05-03T01:03:44;77366.59;;;-142.11;100.00
14800;BME280;7491;57.750;11.970;2023-05-03T01:06:17;77370.66;;;-142.11;100.00
14800;BME280;7491;57.750;11.970;2023-05-03T01:08:57;77376.78;;;-142.11;100.00
14800;BME280;7491;57.750;11.970;2023-05-03T01:11:29;77370.66;;;-142.11;100.00
14800;BME280;7491;57.750;11.970;2023-05-03T01:14:06;77378.84;;;-142.11;100.00
14800;BME280;7491;57.750;11.970;2023-05-03T01:16:39;77389.03;;;-142.11;100.00
14800;BME280;7491;57.750;11.970;2023-05-03T01:19:12;77391.06;;;-142.11;100.00
14800;BME280;7491;57.750;11.970;2023-05-03T01:21:46;77403.31;;;-142.11;100.00
14800;BME280;7491;57.750;11.970;2023-05-03T01:24:21;77393.09;;;-142.11;100.00
14800;BME280;7491;57.750;11.970;2023-05-03T01:26:51;77407.38;;;-142.11;100.00
14800;BME280;7491;57.750;11.970;2023-05-03T01:29:18;77405.34;;;-142.11;100.00
14800;BME280;7491;57.750;11.970;2023-05-03T01:31:52;77409.41;;;-142.11;100.00
14800;BME280;7491;57.750;11.970;2023-05-03T01:34:25;77411.47;;;-142.11;100.00
14800;BME280;7491;57.750;11.970;2023-05-03T01:36:57;77425.72;;;-142.11;100.00
14800;BME280;7491;57.750;11.970;2023-05-03T01:39:31;77415.53;;;-142.11;100.00
14800;BME280;7491;57.750;11.970;2023-05-03T01:42:02;77411.47;;;-142.11;100.00
14800;BME280;7491;57.750;11.970;2023-05-03T01:44:30;77415.53;;;-142.11;100.00
14800;BME280;7491;57.750;11.970;2023-05-03T01:46:57;77415.53;;;-142.11;100.00
14800;BME280;7491;57.750;11.970;2023-05-03T01:49:24;77415.53;;;-142.11;100.00
14800;BME280;7491;57.750;11.970;2023-05-03T01:51:51;77421.66;;;-142.11;100.00
14800;BME280;7491;57.750;11.970;2023-05-03T01:54:18;77431.84;;;-142.11;100.00
14800;BME280;7491;57.750;11.970;2023-05-03T01:56:45;77442.03;;;-142.11;100.00
14800;BME280;7491;57.750;11.970;2023-05-03T01:59:13;77454.28;;;-142.11;100.00
14800;BME280;7491;57.750;11.970;2023-05-03T02:01:40;77456.31;;;-142.11;100.00
14800;BME280;7491;57.750;11.970;2023-05-03T02:04:06;77474.69;;;-142.11;100.00
14800;BME280;7491;57.750;11.970;2023-05-03T02:06:33;77476.72;;;-142.11;100.00
14800;BME280;7491;57.750;11.970;2023-05-03T02:09:00;77480.78;;;-142.11;100.00
14800;BME280;7491;57.750;11.970;2023-05-03T02:11:27;77484.88;;;-142.11;100.00
14800;BME280;7491;57.750;11.970;2023-05-03T02:13:53;77488.94;;;-142.11;100.00
14800;BME280;7491;57.750;11.970;2023-05-03T02:16:21;77497.09;;;-142.11;100.00
14800;BME280;7491;57.750;11.970;2023-05-03T02:18:48;77509.34;;;-142.11;100.00
14800;BME280;7491;57.750;11.970;2023-05-03T02:21:16;77505.25;;;-142.11;100.00
14800;BME280;7491;57.750;11.970;2023-05-03T02:23:42;77501.19;;;-142.11;100.00
14800;BME280;7491;57.750;11.970;2023-05-03T02:26:09;77511.38;;;-142.11;100.00
14800;BME280;7491;57.750;11.970;2023-05-03T02:28:36;77517.50;;;-142.11;100.00
14800;BME280;7491;57.750;11.970;2023-05-03T02:31:02;77513.41;;;-142.11;100.00
14800;BME280;7491;57.750;11.970;2023-05-03T02:33:32;77527.69;;;-142.11;100.00
14800;BME280;7491;57.750;11.970;2023-05-03T02:35:58;77525.66;;;-142.11;100.00
14800;BME280;7491;57.750;11.970;2023-05-03T02:38:25;77523.63;;;-142.11;100.00
14800;BME280;7491;57.750;11.970;2023-05-03T02:40:52;77537.91;;;-142.11;100.00
14800;BME280;7491;57.750;11.970;2023-05-03T02:43:18;77544.00;;;-142.11;100.00
14800;BME280;7491;57.750;11.970;2023-05-03T02:45:45;77550.13;;;-142.11;100.00
14800;BME280;7491;57.750;11.970;2023-05-03T02:48:12;77556.25;;;-142.11;100.00
14800;BME280;7491;57.750;11.970;2023-05-03T02:50:41;77548.09;;;-142.11;100.00
14800;BME280;7491;57.750;11.970;2023-05-03T02:53:08;77552.16;;;-142.11;100.00
14800;BME280;7491;57.750;11.970;2023-05-03T02:55:36;77560.31;;;-142.11;100.00
14800;BME280;7491;57.750;11.970;2023-05-03T02:58:02;77570.53;;;-142.11;100.00
14800;BME280;7491;57.750;11.970;2023-05-03T03:00:29;77576.63;;;-142.11;100.00
14800;BME280;7491;57.750;11.970;2023-05-03T03:02:56;77590.91;;;-142.11;100.00
14800;BME280;7491;57.750;11.970;2023-05-03T03:05:23;77590.91;;;-142.11;100.00
14800;BME280;7491;57.750;11.970;2023-05-03T03:07:51;77599.06;;;-142.11;100.00
14800;BME280;7491;57.750;11.970;2023-05-03T03:10:18;77597.03;;;-142.11;100.00
14800;BME280;7491;57.750;11.970;2023-05-03T03:12:45;77595.00;;;-142.11;100.00
14800;BME280;7491;57.750;11.970;2023-05-03T03:15:12;77597.03;;;-142.11;100.00
14800;BME280;7491;57.750;11.970;2023-05-03T03:17:39;77599.06;;;-142.11;100.00
14800;BME280;7491;57.750;11.970;2023-05-03T03:20:06;77599.06;;;-142.11;100.00
14800;BME280;7491;57.750;11.970;2023-05-03T03:22:35;77603.16;;;-142.11;100.00
14800;BME280;7491;57.750;11.970;2023-05-03T03:25:05;77613.34;;;-142.11;100.00
14800;BME280;7491;57.750;11.970;2023-05-03T03:27:32;77611.31;;;-142.11;100.00
14800;BME280;7491;57.750;11.970;2023-05-03T03:29:59;77609.28;;;-142.11;100.00
14800;BME280;7491;57.750;11.970;2023-05-03T03:32:25;77599.06;;;-142.11;100.00
14800;BME280;7491;57.750;11.970;2023-05-03T03:34:52;77590.91;;;-142.11;100.00
14800;BME280;7491;57.750;11.970;2023-05-03T03:37:19;77590.91;;;-142.11;100.00
14800;BME280;7491;57.750;11.970;2023-05-03T03:39:46;77590.91;;;-142.11;100.00
14800;BME280;7491;57.750;11.970;2023-05-03T03:42:14;77590.91;;;-142.11;100.00
14800;BME280;7491;57.750;11.970;2023-05-03T03:44:41;77592.94;;;-142.11;100.00
14800;BME280;7491;57.750;11.970;2023-05-03T03:47:07;77584.78;;;-142.11;100.00
14800;BME280;7491;57.750;11.970;2023-05-03T03:49:34;77607.22;;;-142.11;100.00
14800;BME280;7491;57.750;11.970;2023-05-03T03:52:01;77613.34;;;-142.11;100.00
14800;BME280;7491;57.750;11.970;2023-05-03T03:54:28;77623.53;;;-142.11;100.00
14800;BME280;7491;57.750;11.970;2023-05-03T03:56:55;77607.22;;;-142.11;100.00
14800;BME280;7491;57.750;11.970;2023-05-03T03:59:23;77621.50;;;-142.11;100.00
14800;BME280;7491;57.750;11.970;2023-05-03T04:01:50;77613.34;;;-142.11;100.00
14800;BME280;7491;57.750;11.970;2023-05-03T04:04:17;77603.16;;;-142.11;100.00
14800;BME280;7491;57.750;11.970;2023-05-03T04:06:44;77599.06;;;-142.11;100.00
14800;BME280;7491;57.750;11.970;2023-05-03T04:09:10;77588.88;;;-142.11;100.00
14800;BME280;7491;57.750;11.970;2023-05-03T04:11:38;77595.00;;;-142.11;100.00
14800;BME280;7491;57.750;11.970;2023-05-03T04:14:05;77584.78;;;-142.11;100.00
14800;BME280;7491;57.750;11.970;2023-05-03T04:16:33;77578.69;;;-142.11;100.00
14800;BME280;7491;57.750;11.970;2023-05-03T04:19:00;77580.72;;;-142.11;100.00
14800;BME280;7491;57.750;11.970;2023-05-03T04:21:27;77558.28;;;-142.11;100.00
14800;BME280;7491;57.750;11.970;2023-05-03T04:23:53;77533.81;;;-142.11;100.00
14800;BME280;7491;57.750;11.970;2023-05-03T04:26:20;77529.72;;;-142.11;100.00
14800;BME280;7491;57.750;11.970;2023-05-03T04:28:48;77537.91;;;-142.11;100.00
14800;BME280;7491;57.750;11.970;2023-05-03T04:31:16;77503.22;;;-142.11;100.00
14800;BME280;7491;57.750;11.970;2023-05-03T04:33:44;77507.31;;;-142.11;100.00
14800;BME280;7491;57.750;11.970;2023-05-03T04:36:11;77450.19;;;-142.11;100.00
14800;BME280;7491;57.750;11.970;2023-05-03T04:38:40;77415.53;;;-142.11;100.00
14800;BME280;7491;57.750;11.970;2023-05-03T04:41:07;77360.47;;;-142.11;100.00
14800;BME280;7491;57.750;11.970;2023-05-03T04:43:33;77309.50;;;-142.11;100.00
14800;BME280;7491;57.750;11.970;2023-05-03T04:46:00;77229.97;;;-142.11;100.00
14800;BME280;7491;57.750;11.970;2023-05-03T04:48:27;77197.34;;;-142.11;100.00
14800;BME280;7491;57.750;11.970;2023-05-03T04:50:56;77234.03;;;-142.11;100.00
14800;BME280;7491;57.750;11.970;2023-05-03T04:53:23;77280.94;;;-142.11;100.00
14800;BME280;7491;57.750;11.970;2023-05-03T04:55:49;77315.63;;;-142.11;100.00
14800;BME280;7491;57.750;11.970;2023-05-03T04:58:16;77319.69;;;-142.11;100.00
14800;BME280;7491;57.750;11.970;2023-05-03T05:00:44;77317.66;;;-142.11;100.00
14800;BME280;7491;57.750;11.970;2023-05-03T05:03:11;77270.75;;;-142.11;100.00
14800;BME280;7491;57.750;11.970;2023-05-03T05:05:37;77244.25;;;-142.11;100.00
14800;BME280;7491;57.750;11.970;2023-05-03T05:08:05;77246.28;;;-142.11;100.00
14800;BME280;7491;57.750;11.970;2023-05-03T05:10:36;77217.72;;;-142.11;100.00
14800;BME280;7491;57.750;11.970;2023-05-03T05:13:03;77176.94;;;-142.11;100.00
14800;BME280;7491;57.750;11.970;2023-05-03T05:15:30;77170.84;;;-142.11;100.00
14800;BME280;7491;57.750;11.970;2023-05-03T05:17:57;77162.69;;;-142.11;100.00
14800;BME280;7491;57.750;11.970;2023-05-03T05:20:23;77162.69;;;-142.11;100.00
14800;BME280;7491;57.750;11.970;2023-05-03T05:22:50;77156.56;;;-142.11;100.00
14800;BME280;7491;57.750;11.970;2023-05-03T05:25:18;77154.53;;;-142.11;100.00
14800;BME280;7491;57.750;11.970;2023-05-03T05:27:45;77138.22;;;-142.11;100.00
14800;BME280;7491;57.750;11.970;2023-05-03T05:30:14;77089.28;;;-142.11;100.00
14800;BME280;7491;57.750;11.970;2023-05-03T05:32:40;77058.69;;;-142.11;100.00
14800;BME280;7491;57.750;11.970;2023-05-03T05:35:08;77062.75;;;-142.11;100.00
14800;BME280;7491;57.750;11.970;2023-05-03T05:37:35;77060.72;;;-142.11;100.00
14800;BME280;7491;57.750;11.970;2023-05-03T05:40:01;77068.88;;;-142.11;100.00
14800;BME280;7491;57.750;11.970;2023-05-03T05:42:30;77064.81;;;-142.11;100.00
14800;BME280;7491;57.750;11.970;2023-05-03T05:44:56;77046.44;;;-142.11;100.00
14800;BME280;7491;57.750;11.970;2023-05-03T05:47:23;77028.09;;;-142.11;100.00
14800;BME280;7491;57.750;11.970;2023-05-03T05:49:50;77009.75;;;-142.11;100.00
14800;BME280;7491;57.750;11.970;2023-05-03T05:52:16;76995.47;;;-142.11;100.00
14800;BME280;7491;57.750;11.970;2023-05-03T05:54:43;77007.72;;;-142.11;100.00
14800;BME280;7491;57.750;11.970;2023-05-03T05:57:10;77003.63;;;-142.11;100.00
14800;BME280;7491;57.750;11.970;2023-05-03T05:59:39;76993.44;;;-142.11;100.00
14800;BME280;7491;57.750;11.970;2023-05-03T06:02:11;76987.31;;;-142.11;100.00
14800;BME280;7491;57.750;11.970;2023-05-03T06:04:39;76968.97;;;-142.11;100.00
14800;BME280;7491;57.750;11.970;2023-05-03T06:07:06;76971.00;;;-142.11;100.00
14800;BME280;7491;57.750;11.970;2023-05-03T06:09:32;76956.75;;;-142.11;100.00
14800;BME280;7491;57.750;11.970;2023-05-03T06:11:59;76948.56;;;-142.11;100.00
14800;BME280;7491;57.750;11.970;2023-05-03T06:14:26;76938.38;;;-142.11;100.00
14800;BME280;7491;57.750;11.970;2023-05-03T06:16:55;76893.53;;;-142.11;100.00
14800;BME280;7491;57.750;11.970;2023-05-03T06:19:23;76877.22;;;-142.11;100.00
14800;BME280;7491;57.750;11.970;2023-05-03T06:22:01;76869.06;;;-142.11;100.00
14800;BME280;7491;57.750;11.970;2023-05-03T06:24:53;76864.97;;;-142.11;100.00
14800;BME280;7491;57.750;11.970;2023-05-03T06:30:38;76826.25;;;-142.11;100.00
14800;BME280;7491;57.750;11.970;2023-05-03T06:44:00;76738.56;;;-142.11;100.00
14800;BME280;7491;57.750;11.970;2023-05-03T07:20:50;76618.28;;;-142.11;100.00
14800;BME280;7491;57.750;11.970;2023-05-03T07:23:21;76616.25;;;-142.11;100.00
14800;BME280;7491;57.750;11.970;2023-05-03T07:25:48;76575.47;;;-142.11;100.00
14800;BME280;7491;57.750;11.970;2023-05-03T07:28:15;76520.41;;;-142.11;100.00
14800;BME280;7491;57.750;11.970;2023-05-03T07:30:42;76536.72;;;-142.11;100.00
14800;BME280;7491;57.750;11.970;2023-05-03T07:33:08;76548.97;;;-142.11;100.00
14800;BME280;7491;57.750;11.970;2023-05-03T07:35:35;76559.16;;;-142.11;100.00
14800;BME280;7491;57.750;11.970;2023-05-03T07:38:03;76553.03;;;-142.11;100.00
14800;BME280;7491;57.750;11.970;2023-05-03T07:40:30;76536.72;;;-142.11;100.00
14800;BME280;7491;57.750;11.970;2023-05-03T07:42:57;76530.63;;;-142.11;100.00
14800;BME280;7491;57.750;11.970;2023-05-03T07:45:24;76504.13;;;-142.11;100.00
14800;BME280;7491;57.750;11.970;2023-05-03T07:47:51;76467.41;;;-142.11;100.00
14800;BME280;7491;57.750;11.970;2023-05-03T07:50:18;76477.63;;;-142.11;100.00
14800;BME280;7491;57.750;11.970;2023-05-03T07:52:44;76485.75;;;-142.11;100.00
14800;BME280;7491;57.750;11.970;2023-05-03T07:55:17;76477.63;;;-142.11;100.00
14800;BME280;7491;57.750;11.970;2023-05-03T07:57:44;76481.69;;;-142.11;100.00
14800;BME280;7491;57.750;11.970;2023-05-03T08:00:12;76483.72;;;-142.11;100.00
14800;BME280;7491;57.750;11.970;2023-05-03T08:02:39;76438.88;;;-142.11;100.00
14800;BME280;7491;57.750;11.970;2023-05-03T08:05:06;76483.72;;;-142.11;97.68
14800;BME280;7491;57.750;11.970;2023-05-03T08:07:34;76504.13;;;-142.11;96.52
14800;BME280;7491;57.750;11.970;2023-05-03T08:10:00;76514.31;;;-142.11;92.97
14800;BME280;7491;57.750;11.970;2023-05-03T08:12:28;76506.16;;;-142.11;93.76
14800;BME280;7491;57.750;11.970;2023-05-03T08:14:55;76518.38;;;-142.11;92.06
14800;BME280;7491;57.750;11.970;2023-05-03T08:17:22;76522.47;;;-142.11;91.75
14800;BME280;7491;57.750;11.970;2023-05-03T08:19:49;76504.13;;;-142.11;92.18
14800;BME280;7491;57.750;11.970;2023-05-03T08:22:16;76514.31;;;-142.11;92.23
14800;BME280;7491;57.750;11.970;2023-05-03T08:24:43;76522.47;;;-142.11;88.74
14800;BME280;7491;57.750;11.970;2023-05-03T08:27:10;76530.63;;;-142.11;89.00
14800;BME280;7491;57.750;11.970;2023-05-03T08:29:38;76538.78;;;-142.11;85.88
14800;BME280;7491;57.750;11.970;2023-05-03T08:32:05;76530.63;;;-142.11;85.86
14800;BME280;7491;57.750;11.970;2023-05-03T08:34:31;76522.47;;;-142.11;85.34
14800;BME280;7491;57.750;11.970;2023-05-03T08:36:58;76516.34;;;-142.11;85.15
14800;BME280;7491;57.750;11.970;2023-05-03T08:39:25;76508.19;;;-142.11;84.64
14800;BME280;7491;57.750;11.970;2023-05-03T08:41:52;76498.00;;;-142.11;85.54
14800;BME280;7491;57.750;11.970;2023-05-03T08:44:19;76516.34;;;-142.11;83.81
14800;BME280;7491;57.750;11.970;2023-05-03T08:46:49;76516.34;;;-142.11;83.59
14800;BME280;7491;57.750;11.970;2023-05-03T08:49:16;76512.28;;;-142.11;83.75
14800;BME280;7491;57.750;11.970;2023-05-03T08:51:43;76514.31;;;-142.11;83.61
14800;BME280;7491;57.750;11.970;2023-05-03T08:54:11;76487.81;;;-142.11;82.85
14800;BME280;7491;57.750;11.970;2023-05-03T08:56:39;76520.41;;;-142.11;84.17
14800;BME280;7491;57.750;11.970;2023-05-03T08:59:06;76526.53;;;-142.11;81.75
14800;BME280;7491;57.750;11.970;2023-05-03T09:01:35;76518.38;;;-142.11;83.31
14800;BME280;7491;57.750;11.970;2023-05-03T09:04:04;76522.47;;;-142.11;83.27
14800;BME280;7491;57.750;11.970;2023-05-03T09:06:31;76538.78;;;-142.11;82.78
14800;BME280;7491;57.750;11.970;2023-05-03T09:08:59;76540.81;;;-142.11;83.04
14800;BME280;7491;57.750;11.970;2023-05-03T09:11:28;76540.81;;;-142.11;82.85
14800;BME280;7491;57.750;11.970;2023-05-03T09:14:07;76530.63;;;-142.11;82.43
14800;BME280;7491;57.750;11.970;2023-05-03T09:16:34;76526.53;;;-142.11;81.92
14800;BME280;7491;57.750;11.970;2023-05-03T09:19:04;76538.78;;;-142.11;82.15
14800;BME280;7491;57.750;11.970;2023-05-03T09:21:34;76532.66;;;-142.11;83.25
14800;BME280;7491;57.750;11.970;2023-05-03T09:24:01;76536.72;;;-142.11;83.37
14800;BME280;7491;57.750;11.970;2023-05-03T09:26:30;76512.28;;;-142.11;83.81
14800;BME280;7491;57.750;11.970;2023-05-03T09:28:58;76514.31;;;-142.11;83.45
14800;BME280;7491;57.750;11.970;2023-05-03T09:31:27;76510.22;;;-142.11;84.48
14800;BME280;7491;57.750;11.970;2023-05-03T09:33:54;76516.34;;;-142.11;83.96
14800;BME280;7491;57.750;11.970;2023-05-03T09:36:23;76510.22;;;-142.11;84.15
14800;BME280;7491;57.750;11.970;2023-05-03T09:38:51;76508.19;;;-142.11;84.43
14800;BME280;7491;57.750;11.970;2023-05-03T09:41:28;76512.28;;;-142.11;84.07
14800;BME280;7491;57.750;11.970;2023-05-03T09:43:55;76520.41;;;-142.11;84.97
14800;BME280;7491;57.750;11.970;2023-05-03T09:46:27;76518.38;;;-142.11;84.27
14800;BME280;7491;57.750;11.970;2023-05-03T09:48:55;76530.63;;;-142.11;85.18
14800;BME280;7491;57.750;11.970;2023-05-03T09:51:24;76520.41;;;-142.11;85.77
14800;BME280;7491;57.750;11.970;2023-05-03T09:53:52;76522.47;;;-142.11;86.77
14800;BME280;7491;57.750;11.970;2023-05-03T09:56:19;76502.06;;;-142.11;85.28
14800;BME280;7491;57.750;11.970;2023-05-03T09:58:51;76500.03;;;-142.11;84.66
14800;BME280;7491;57.750;11.970;2023-05-03T10:01:18;76510.22;;;-142.11;84.00
14800;BME280;7491;57.750;11.970;2023-05-03T10:03:48;76512.28;;;-142.11;84.25
14800;BME280;7491;57.750;11.970;2023-05-03T10:06:24;76516.34;;;-142.11;84.93
14800;BME280;7491;57.750;11.970;2023-05-03T10:08:53;76528.56;;;-142.11;85.12
14800;BME280;7491;57.750;11.970;2023-05-03T10:11:23;76526.53;;;-142.11;84.43
14800;BME280;7491;57.750;11.970;2023-05-03T10:13:52;76508.19;;;-142.11;85.06
14800;BME280;7491;57.750;11.970;2023-05-03T10:16:23;76512.28;;;-142.11;88.14
14800;BME280;7491;57.750;11.970;2023-05-03T10:18:57;76508.19;;;-142.11;87.05
14800;BME280;7491;57.750;11.970;2023-05-03T10:21:50;76518.38;;;-142.11;86.72
14800;BME280;7491;57.750;11.970;2023-05-03T10:24:19;76508.19;;;-142.11;86.07
14800;BME280;7491;57.750;11.970;2023-05-03T10:26:49;76518.38;;;-142.11;86.16
14800;BME280;7491;57.750;11.970;2023-05-03T10:29:49;76518.38;;;-142.11;85.14
14800;BME280;7491;57.750;11.970;2023-05-03T10:32:28;76518.38;;;-142.11;84.04
14800;BME280;7491;57.750;11.970;2023-05-03T10:34:56;76495.97;;;-142.11;84.73
14800;BME280;7491;57.750;11.970;2023-05-03T10:37:26;76495.97;;;-142.11;84.98
14800;BME280;7491;57.750;11.970;2023-05-03T10:39:53;76469.44;;;-142.11;85.36
14800;BME280;7491;57.750;11.970;2023-05-03T10:42:22;76475.56;;;-142.11;84.54
14800;BME280;7491;57.750;11.970;2023-05-03T10:44:51;76477.63;;;-142.11;85.23
14800;BME280;7491;57.750;11.970;2023-05-03T10:47:19;76465.38;;;-142.11;86.09
14800;BME280;7491;57.750;11.970;2023-05-03T10:49:47;76442.94;;;-142.11;85.17
14800;BME280;7491;57.750;11.970;2023-05-03T10:52:46;76467.41;;;-142.11;85.51
14800;BME280;7491;57.750;11.970;2023-05-03T10:55:14;76465.38;;;-142.11;86.07
14800;BME280;7491;57.750;11.970;2023-05-03T10:57:42;76457.22;;;-142.11;84.83
14800;BME280;7491;57.750;11.970;2023-05-03T11:00:12;76442.94;;;-142.11;82.99
14800;BME280;7491;57.750;11.970;2023-05-03T11:02:55;76418.50;;;-142.11;83.69
14800;BME280;7491;57.750;11.970;2023-05-03T11:05:29;76412.38;;;-142.11;82.73
14800;BME280;7491;57.750;11.970;2023-05-03T11:08:13;76410.34;;;-142.11;81.17
14800;BME280;7491;57.750;11.970;2023-05-03T11:10:43;76424.59;;;-142.11;81.43
14800;BME280;7491;57.750;11.970;2023-05-03T11:13:10;76432.75;;;-142.11;81.87
14800;BME280;7491;57.750;11.970;2023-05-03T11:15:37;76449.06;;;-142.11;81.64
14800;BME280;7491;57.750;11.970;2023-05-03T11:18:05;76473.53;;;-142.11;81.30
14800;BME280;7491;57.750;11.970;2023-05-03T11:20:32;76453.16;;;-142.11;81.79
14800;BME280;7491;57.750;11.970;2023-05-03T11:22:59;76459.25;;;-142.11;80.46
14800;BME280;7491;57.750;11.970;2023-05-03T11:25:28;76455.19;;;-142.11;80.86
14800;BME280;7491;57.750;11.970;2023-05-03T11:27:55;76440.91;;;-142.11;79.53
14800;BME280;7491;57.750;11.970;2023-05-03T11:30:21;76442.94;;;-142.11;79.63
14800;BME280;7491;57.750;11.970;2023-05-03T11:32:48;76432.75;;;-142.11;80.49
14800;BME280;7491;57.750;11.970;2023-05-03T11:35:15;76436.84;;;-142.11;79.83
14800;BME280;7491;57.750;11.970;2023-05-03T11:37:42;76457.22;;;-142.11;80.04
14800;BME280;7491;57.750;11.970;2023-05-03T11:40:13;76459.25;;;-142.11;80.56
14800;BME280;7491;57.750;11.970;2023-05-03T11:42:52;76451.09;;;-142.11;79.75
14800;BME280;7491;57.750;11.970;2023-05-03T11:45:21;76457.22;;;-142.11;79.58
14800;BME280;7491;57.750;11.970;2023-05-03T11:47:49;76467.41;;;-142.11;80.05
14800;BME280;7491;57.750;11.970;2023-05-03T11:50:16;76461.31;;;-142.11;80.46
14800;BME280;7491;57.750;11.970;2023-05-03T11:52:44;76453.16;;;-142.11;80.45
14800;BME280;7491;57.750;11.970;2023-05-03T11:55:11;76451.09;;;-142.11;80.77
14800;BME280;7491;57.750;11.970;2023-05-03T11:57:38;76447.03;;;-142.11;80.64
14800;BME280;7491;57.750;11.970;2023-05-03T12:00:13;76432.75;;;-142.11;79.81
14800;BME280;7491;57.750;11.970;2023-05-03T12:02:41;76434.78;;;-142.11;79.49
14800;BME280;7491;57.750;11.970;2023-05-03T12:05:08;76434.78;;;-142.11;79.81
14800;BME280;7491;57.750;11.970;2023-05-03T12:07:36;76453.16;;;-142.11;80.45
14800;BME280;7491;57.750;11.970;2023-05-03T12:10:14;76434.78;;;-142.11;80.29
14800;BME280;7491;57.750;11.970;2023-05-03T12:12:51;76459.25;;;-142.11;79.99
14800;BME280;7491;57.750;11.970;2023-05-03T12:15:28;76465.38;;;-142.11;81.33
14800;BME280;7491;57.750;11.970;2023-05-03T12:17:56;76459.25;;;-142.11;81.06
14800;BME280;7491;57.750;11.970;2023-05-03T12:20:23;76469.44;;;-142.11;81.01
14800;BME280;7491;57.750;11.970;2023-05-03T12:22:51;76473.53;;;-142.11;82.03
14800;BME280;7491;57.750;11.970;2023-05-03T12:25:18;76459.25;;;-142.11;83.37
14800;BME280;7491;57.750;11.970;2023-05-03T12:27:45;76445.00;;;-142.11;83.86
14800;BME280;7491;57.750;11.970;2023-05-03T12:30:12;76463.34;;;-142.11;83.00
14800;BME280;7491;57.750;11.970;2023-05-03T12:32:41;76467.41;;;-142.11;84.52
14800;BME280;7491;57.750;11.970;2023-05-03T12:35:08;76455.19;;;-142.11;83.63
14800;BME280;7491;57.750;11.970;2023-05-03T12:37:35;76461.31;;;-142.11;83.44
14800;BME280;7491;57.750;11.970;2023-05-03T12:40:02;76449.06;;;-142.11;82.88
14800;BME280;7491;57.750;11.970;2023-05-03T12:42:29;76438.88;;;-142.11;83.00
14800;BME280;7491;57.750;11.970;2023-05-03T12:44:56;76451.09;;;-142.11;82.11
14800;BME280;7491;57.750;11.970;2023-05-03T12:47:23;76481.69;;;-142.11;82.13
14800;BME280;7491;57.750;11.970;2023-05-03T12:49:51;76485.75;;;-142.11;82.40
14800;BME280;7491;57.750;11.970;2023-05-03T12:52:19;76493.91;;;-142.11;83.75
14800;BME280;7491;57.750;11.970;2023-05-03T12:54:46;76514.31;;;-142.11;83.83
14800;BME280;7491;57.750;11.970;2023-05-03T12:57:13;76506.16;;;-142.11;84.18
14800;BME280;7491;57.750;11.970;2023-05-03T12:59:40;76498.00;;;-142.11;84.43
14800;BME280;7491;57.750;11.970;2023-05-03T13:02:06;76506.16;;;-142.11;83.44
14800;BME280;7491;57.750;11.970;2023-05-03T13:04:33;76498.00;;;-142.11;83.01
14800;BME280;7491;57.750;11.970;2023-05-03T13:07:02;76489.84;;;-142.11;83.48
14800;BME280;7491;57.750;11.970;2023-05-03T13:09:29;76471.50;;;-142.11;83.35
14800;BME280;7491;57.750;11.970;2023-05-03T13:11:56;76455.19;;;-142.11;82.86
14800;BME280;7491;57.750;11.970;2023-05-03T13:14:23;76487.81;;;-142.11;83.56
14800;BME280;7491;57.750;11.970;2023-05-03T13:16:50;76471.50;;;-142.11;84.72
14800;BME280;7491;57.750;11.970;2023-05-03T13:19:17;76440.91;;;-142.11;84.65
14800;BME280;7491;57.750;11.970;2023-05-03T13:21:45;76449.06;;;-142.11;84.03
14800;BME280;7491;57.750;11.970;2023-05-03T13:24:14;76440.91;;;-142.11;83.91
14800;BME280;7491;57.750;11.970;2023-05-03T13:26:41;76467.41;;;-142.11;83.13
14800;BME280;7491;57.750;11.970;2023-05-03T13:29:07;76498.00;;;-142.11;81.88
14800;BME280;7491;57.750;11.970;2023-05-03T13:31:34;76498.00;;;-142.11;82.95